Aviation Digital Data Service (ADDS)

Output produced by METARs form (2122 UTC 20 November 2018)
found at http://www.aviationweather.gov/metar/data/
 
LHDC 201645Z 07008KT 7000 RA OVC033 05/03 Q1014 NOSIG
LHDC 201615Z 06009KT 8000 RA OVC033 05/03 Q1014 NOSIG
LHDC 201546Z 06008KT 7000 RA OVC033 05/03 Q1014
LHDC 201545Z 06008KT 7000 RA OVC033 05/03 Q1014 NOSIG
TAF LHDC 201415Z 2015/2024 06010KT 8000 -RADZ OVC040 
     TEMPO 2015/2024 3000 RA BKN010 OVC030 
     BECMG 2018/2021 05005KT